メインページ
METAR-TAF:

METAR-TAF

空港 :

Oakland County International Airport

ポンティアク, ミシガン州, アメリカ合衆国

緯度: 42-39-47N, 経度: 083-24-36W, 海抜: 299m

現時点の気象観測

当レポートは49分前の17:53(UTC)に作成
東/南東の風 7kt、東/北東から南/南東の間で変化する
気温 30°C
湿度 49%
気圧 1018 hPa
視程: 16.1km
高度4900ftの雲は散在している

METAR: KPTK 261753Z 12007KT 070V160 10SM SCT049 30/18 A3006 RMK AO2 SLP170 T03000183 10300 20217 58008

時間: 14:42 (18:42 UTC)

予報

当レポートは1時間4分前の17:38(UTC)に作成
予報は26日の 18時(UTC)から 27日の 18時(UTC)まで有効
の風 7kt
視程: 10km
高度7000ftの雲は散在している
高度20000ftの千切れ雲あり
27日の 0300時(UTC)から
南東の風 3kt
視程: 10km
高度5000ftの雲は散在している
高度25000ftの千切れ雲あり
27日の 1200時(UTC)から
南/南東の風 5kt
視程: 10km
高度15000ftの千切れ雲あり

TAF: KPTK 261738Z 2618/2718 17007KT P6SM SCT070 BKN200 FM270300 14003KT P6SM SCT050 BKN250 FM271200 16005KT P6SM BKN150

4,000以上の空港の気象観測と天気予報(METAR報とTAF報)

利用可能な観測所は地図上に黄色い丸と赤い丸で示す。

丸の上にカーソルを重ねると観測所名を参照できる。

次にクリックすると気象観測と天気予報を参照できる。

マップの切り替え:黒色「×」印の緑ボタンをクリックして拡大、「-」印の緑ボタンをクリックして縮小、緑色の三角印をクリックして隣りの地図に切り替え


METAR-TAF: